Terminal Aerodrome Forecast
Issued by NWS

Home | Current Version | Previous Version | Text Only | Print | Product List | Glossary On
Versions: 1 2 3 4 5 6 7 8 9 10 11 12 13 14 15 16 17 18 19 20 21 22 23 24 25 26 27 28 29 30 31 32 33 34 35 36
000
FTUS41 KBOX 221728
TAFBAF
TAF
KBAF 221728Z 2218/2318 25012KT P6SM FEW250
     FM230000 22008KT P6SM VCSH OVC050
     FM230600 17004KT P6SM OVC050
     FM231200 19004KT P6SM VCSH OVC050
     FM231500 19008KT P6SM VCSH BKN070=

USA.gov is the U.S. government's official web portal to all federal, state and local government web resources and services.